Time;durP1;ratioP1;P1;durP2;ratioP2;P2;SDS_P1;SDS_P2;PMS_P1;PMS_P2;Temp;Humidity;BMP_temperature;BMP_pressure;BME280_temperature;BME280_humidity;BME280_pressure;Samples;Min_cycle;Max_cycle;Signal;HPM_P1;HPM_P2
2021/07/09 00:02:33;;;;;;;4.67;2.97;;;19.00;99.90;;;;;;5079754;28;20390;-86
2021/07/09 00:04:59;;;;;;;6.03;3.30;;;19.00;99.90;;;;;;5079495;28;20835;-86
2021/07/09 00:07:26;;;;;;;3.33;3.00;;;18.90;99.90;;;;;;5079381;28;20913;-86
2021/07/09 00:09:53;;;;;;;8.53;3.97;;;18.90;99.90;;;;;;5079774;28;20390;-86
2021/07/09 00:12:19;;;;;;;5.83;3.10;;;18.80;99.90;;;;;;5079629;28;20404;-85
2021/07/09 00:14:45;;;;;;;3.13;2.83;;;18.80;99.90;;;;;;5079773;28;20398;-86
2021/07/09 00:17:11;;;;;;;6.60;3.90;;;18.80;99.90;;;;;;5079673;28;20511;-86
2021/07/09 00:19:37;;;;;;;4.10;3.60;;;18.80;99.90;;;;;;5079087;28;20199;-86
2021/07/09 00:22:05;;;;;;;4.20;3.10;;;18.70;99.90;;;;;;5079711;28;20213;-86
2021/07/09 00:24:32;;;;;;;9.53;4.13;;;18.80;99.90;;;;;;5079418;28;20789;-86
2021/07/09 00:26:58;;;;;;;5.40;3.30;;;18.70;99.90;;;;;;5064370;28;20179;-85
2021/07/09 00:29:23;;;;;;;10.10;5.00;;;18.70;99.90;;;;;;5065910;28;20171;-86
2021/07/09 00:31:49;;;;;;;4.07;3.77;;;18.70;99.90;;;;;;5066048;28;20163;-86
2021/07/09 00:34:17;;;;;;;4.60;4.20;;;18.70;99.90;;;;;;5084467;28;20258;-86
2021/07/09 00:36:43;;;;;;;6.00;4.00;;;18.70;99.90;;;;;;5067918;28;20223;-85
2021/07/09 00:39:09;;;;;;;4.43;4.03;;;18.70;99.90;;;;;;5084489;28;20480;-86
2021/07/09 00:41:35;;;;;;;4.53;4.13;;;18.60;99.90;;;;;;5087429;28;20223;-86
2021/07/09 00:44:01;;;;;;;5.17;4.70;;;18.70;99.90;;;;;;5083777;28;20450;-86
2021/07/09 00:46:37;;;;;;;4.27;3.97;;;18.60;99.90;;;;;;5085050;28;20429;-86
2021/07/09 00:49:05;;;;;;;4.53;3.60;;;18.60;99.90;;;;;;5083694;28;20167;-85
2021/07/09 00:51:31;;;;;;;9.53;5.10;;;18.50;99.90;;;;;;5088100;28;20405;-86
2021/07/09 00:53:57;;;;;;;8.57;4.50;;;18.60;99.90;;;;;;5094328;28;20410;-85
2021/07/09 00:56:24;;;;;;;5.60;4.90;;;18.60;99.90;;;;;;5096690;28;20427;-83
2021/07/09 00:58:52;;;;;;;4.83;4.43;;;18.50;99.90;;;;;;5095977;28;20453;-83
2021/07/09 01:01:18;;;;;;;4.13;3.63;;;18.50;99.90;;;;;;5095274;28;20433;-84
2021/07/09 01:03:44;;;;;;;6.93;5.30;;;18.50;99.90;;;;;;5098553;28;20413;-83
2021/07/09 01:06:11;;;;;;;4.10;3.80;;;18.50;99.90;;;;;;5097027;28;20156;-83
2021/07/09 01:08:37;;;;;;;4.20;3.90;;;18.50;99.90;;;;;;5098187;28;20437;-83
2021/07/09 01:11:03;;;;;;;5.40;4.90;;;18.50;99.90;;;;;;5079948;28;20414;-83
2021/07/09 01:13:29;;;;;;;5.50;3.93;;;18.40;99.90;;;;;;5098210;28;20163;-83
2021/07/09 01:15:55;;;;;;;7.60;4.37;;;18.50;99.90;;;;;;5098274;28;20174;-83
2021/07/09 01:18:21;;;;;;;6.90;5.00;;;18.40;99.90;;;;;;5097834;28;20202;-83
2021/07/09 01:20:47;;;;;;;5.27;4.83;;;18.40;99.90;;;;;;5097496;28;20477;-83
2021/07/09 01:23:18;;;;;;;10.33;4.57;;;18.40;99.90;;;;;;5097340;28;20487;-83
2021/07/09 01:25:43;;;;;;;4.20;3.90;;;18.30;99.90;;;;;;5096724;28;20394;-83
2021/07/09 01:28:10;;;;;;;6.63;4.13;;;18.30;99.90;;;;;;5097327;28;20408;-83
2021/07/09 01:30:38;;;;;;;5.50;5.00;;;18.20;99.90;;;;;;5097224;28;20164;-83
2021/07/09 01:33:05;;;;;;;5.17;4.77;;;18.20;99.90;;;;;;5076065;28;20414;-84
2021/07/09 01:35:31;;;;;;;9.23;4.83;;;18.20;99.90;;;;;;5091144;28;20394;-83
2021/07/09 01:38:01;;;;;;;5.70;5.17;;;18.20;99.90;;;;;;5097589;28;20444;-84
2021/07/09 01:40:28;;;;;;;7.83;5.13;;;18.20;99.90;;;;;;5097597;28;20401;-83
2021/07/09 01:42:55;;;;;;;6.90;6.30;;;18.20;99.90;;;;;;5096674;28;20441;-83
2021/07/09 01:45:20;;;;;;;4.90;4.50;;;18.20;99.90;;;;;;5097012;28;20390;-83
2021/07/09 01:47:47;;;;;;;4.97;4.53;;;18.20;99.90;;;;;;5097173;28;20440;-83
2021/07/09 01:50:13;;;;;;;5.73;5.20;;;18.10;99.90;;;;;;5079506;28;20147;-83
2021/07/09 01:52:39;;;;;;;4.87;4.50;;;18.10;99.90;;;;;;5097055;28;20505;-82
2021/07/09 01:55:06;;;;;;;5.33;4.83;;;18.10;99.90;;;;;;5097658;28;20956;-82
2021/07/09 01:57:32;;;;;;;6.10;5.60;;;18.10;99.90;;;;;;5096681;28;20527;-83
2021/07/09 01:59:59;;;;;;;6.80;5.80;;;18.10;99.90;;;;;;5093924;28;20402;-85
2021/07/09 02:02:26;;;;;;;7.10;4.80;;;18.10;99.90;;;;;;5064423;28;20880;-85
2021/07/09 02:04:54;;;;;;;6.10;4.87;;;18.10;99.90;;;;;;5068512;28;20386;-85
2021/07/09 02:07:21;;;;;;;6.60;6.00;;;18.10;99.90;;;;;;5090314;28;20378;-85
2021/07/09 02:09:50;;;;;;;6.13;5.63;;;18.10;99.90;;;;;;5074803;28;20446;-85
2021/07/09 02:12:18;;;;;;;12.30;5.80;;;18.10;99.90;;;;;;5092994;28;20364;-84
2021/07/09 02:14:44;;;;;;;12.50;6.13;;;18.10;99.90;;;;;;5090249;28;20418;-85
2021/07/09 02:17:13;;;;;;;6.47;5.03;;;18.10;99.90;;;;;;5088442;28;20477;-85
2021/07/09 02:19:40;;;;;;;5.27;4.87;;;18.10;99.90;;;;;;5089986;28;20530;-83
2021/07/09 02:22:09;;;;;;;5.60;5.10;;;18.10;99.90;;;;;;5090590;28;20457;-83
2021/07/09 02:24:36;;;;;;;4.70;4.20;;;18.10;99.90;;;;;;5066283;28;20978;-85
2021/07/09 02:27:05;;;;;;;5.30;4.87;;;18.10;99.90;;;;;;5087504;28;20382;-82
2021/07/09 02:29:32;;;;;;;5.87;5.07;;;18.10;99.90;;;;;;5088573;28;20447;-86
2021/07/09 02:31:59;;;;;;;7.70;5.00;;;18.10;99.90;;;;;;5064179;28;20745;-85
2021/07/09 02:34:27;;;;;;;6.40;5.40;;;18.00;99.90;;;;;;5080695;28;20839;-85
2021/07/09 02:36:54;;;;;;;6.43;4.77;;;18.10;99.90;;;;;;5080967;28;20421;-85
2021/07/09 02:39:20;;;;;;;8.60;5.63;;;18.00;99.90;;;;;;5080486;28;20480;-85
2021/07/09 02:41:46;;;;;;;4.37;4.07;;;18.00;99.90;;;;;;5081070;28;20869;-85
2021/07/09 02:44:12;;;;;;;7.30;4.63;;;18.00;99.90;;;;;;5080958;28;20429;-86
2021/07/09 02:46:38;;;;;;;7.87;4.93;;;18.00;99.90;;;;;;5081621;28;20168;-85
2021/07/09 02:49:04;;;;;;;6.63;4.63;;;18.00;99.90;;;;;;5082408;28;20167;-85
2021/07/09 02:51:30;;;;;;;6.57;4.40;;;17.90;99.90;;;;;;5083828;28;20408;-85
2021/07/09 02:53:55;;;;;;;5.80;5.30;;;17.90;99.90;;;;;;5083103;28;20188;-85
2021/07/09 02:56:21;;;;;;;6.30;4.80;;;18.00;99.90;;;;;;5083929;28;20159;-86
2021/07/09 02:58:47;;;;;;;6.07;5.63;;;17.90;99.90;;;;;;5087264;28;20221;-85
2021/07/09 03:01:13;;;;;;;6.23;5.67;;;17.90;99.90;;;;;;5087697;28;20174;-85
2021/07/09 03:03:38;;;;;;;10.30;5.43;;;17.90;99.90;;;;;;5090551;28;20156;-85
2021/07/09 03:06:04;;;;;;;7.30;6.43;;;17.90;99.90;;;;;;5088933;28;20485;-86
2021/07/09 03:08:33;;;;;;;10.57;5.20;;;17.90;99.90;;;;;;5067958;28;20674;-86
2021/07/09 03:10:59;;;;;;;6.73;5.87;;;17.80;99.90;;;;;;5080701;28;20405;-85
2021/07/09 03:13:26;;;;;;;6.37;5.80;;;17.80;99.90;;;;;;5080244;28;20393;-86
2021/07/09 03:15:52;;;;;;;9.40;6.60;;;17.90;99.90;;;;;;5080249;28;20171;-86
2021/07/09 03:18:18;;;;;;;6.70;5.60;;;17.80;99.90;;;;;;5080396;28;20453;-85
2021/07/09 03:20:45;;;;;;;6.67;6.07;;;17.90;99.90;;;;;;5080339;28;20167;-86
2021/07/09 03:23:12;;;;;;;7.87;5.83;;;17.80;99.90;;;;;;5080121;28;20484;-86
2021/07/09 03:25:38;;;;;;;7.73;6.30;;;17.90;99.90;;;;;;5061924;28;20398;-86
2021/07/09 03:28:04;;;;;;;6.33;5.50;;;17.80;99.90;;;;;;5079736;28;20406;-85
2021/07/09 03:30:29;;;;;;;6.30;5.73;;;17.80;99.90;;;;;;5080032;28;20163;-85
2021/07/09 03:32:55;;;;;;;9.03;5.40;;;17.80;99.90;;;;;;5079771;28;20195;-86
2021/07/09 03:35:21;;;;;;;5.90;5.40;;;17.80;99.90;;;;;;5017062;28;20327;-85
2021/07/09 03:37:47;;;;;;;7.20;6.60;;;17.70;99.90;;;;;;5000993;28;20284;-86
2021/07/09 03:40:13;;;;;;;7.60;6.90;;;17.80;99.90;;;;;;5018427;28;20185;-85
2021/07/09 03:42:39;;;;;;;10.53;8.90;;;17.70;99.90;;;;;;5024141;28;20313;-85
2021/07/09 03:45:06;;;;;;;7.53;6.83;;;17.70;99.90;;;;;;5036681;28;20516;-85
2021/07/09 03:47:32;;;;;;;6.73;6.10;;;17.70;99.90;;;;;;5036889;28;20165;-85
2021/07/09 03:49:58;;;;;;;9.63;8.63;;;17.70;99.90;;;;;;5036931;28;20835;-85
2021/07/09 03:52:23;;;;;;;8.43;7.63;;;17.80;99.90;;;;;;5037186;28;20161;-85
2021/07/09 03:54:49;;;;;;;9.00;8.03;;;17.80;99.90;;;;;;5036534;28;20180;-85
2021/07/09 03:57:15;;;;;;;8.90;8.10;;;17.70;99.90;;;;;;5036347;28;20165;-85
2021/07/09 03:59:41;;;;;;;10.75;9.75;;;17.70;99.90;;;;;;5036219;28;20076;-85
2021/07/09 04:02:07;;;;;;;8.77;7.97;;;17.80;99.90;;;;;;5035496;28;20244;-85
2021/07/09 04:04:32;;;;;;;9.33;8.43;;;17.80;99.90;;;;;;5037320;28;20172;-85
2021/07/09 04:06:58;;;;;;;8.53;7.80;;;17.70;99.90;;;;;;5087072;28;20216;-85
2021/07/09 04:09:24;;;;;;;10.03;9.13;;;17.80;99.90;;;;;;5090822;28;20190;-83
2021/07/09 04:11:50;;;;;;;8.70;8.00;;;17.70;99.90;;;;;;5113165;28;20159;-83
2021/07/09 04:14:16;;;;;;;10.23;8.87;;;17.70;99.90;;;;;;5113025;28;20227;-83
2021/07/09 04:16:42;;;;;;;9.47;8.47;;;17.70;99.90;;;;;;5112869;28;20170;-83
2021/07/09 04:19:08;;;;;;;9.90;9.03;;;17.70;99.90;;;;;;5113014;28;20195;-83
2021/07/09 04:21:33;;;;;;;10.10;9.10;;;17.70;99.90;;;;;;5112621;28;20465;-83
2021/07/09 04:23:59;;;;;;;9.60;8.73;;;17.80;99.90;;;;;;5112277;28;20226;-84
2021/07/09 04:26:25;;;;;;;11.30;10.20;;;17.80;99.90;;;;;;5111604;28;20147;-84
2021/07/09 04:28:51;;;;;;;9.87;9.00;;;17.80;99.90;;;;;;5112695;28;20158;-84
2021/07/09 04:31:16;;;;;;;10.83;9.83;;;17.70;99.90;;;;;;5110019;28;20175;-83
2021/07/09 04:33:45;;;;;;;12.87;10.07;;;17.70;99.90;;;;;;5112220;28;20166;-83
2021/07/09 04:36:11;;;;;;;10.90;9.80;;;17.70;99.90;;;;;;5112627;28;20213;-83
2021/07/09 04:38:37;;;;;;;9.60;8.60;;;17.70;99.90;;;;;;5095094;28;20440;-83
2021/07/09 04:41:02;;;;;;;11.30;10.30;;;17.60;99.90;;;;;;5112825;28;20166;-83
2021/07/09 04:43:28;;;;;;;11.67;10.40;;;17.60;99.90;;;;;;5097773;28;20238;-83
2021/07/09 04:45:54;;;;;;;10.87;9.87;;;17.70;99.90;;;;;;5074469;28;20190;-83
2021/07/09 04:48:20;;;;;;;12.80;9.33;;;17.60;99.90;;;;;;5093176;28;20194;-83
2021/07/09 04:50:45;;;;;;;11.90;9.70;;;17.60;99.90;;;;;;5092510;28;20175;-83
2021/07/09 04:53:13;;;;;;;12.10;10.90;;;17.60;99.90;;;;;;5074563;28;20199;-84
2021/07/09 04:55:41;;;;;;;10.37;9.30;;;17.60;99.90;;;;;;5092387;28;20238;-83
2021/07/09 04:58:07;;;;;;;9.83;8.57;;;17.70;99.90;;;;;;5092690;28;20445;-83
2021/07/09 05:00:33;;;;;;;8.97;8.07;;;17.60;99.90;;;;;;5092931;28;20187;-83
2021/07/09 05:02:59;;;;;;;13.13;8.10;;;17.60;99.90;;;;;;5093678;28;20155;-83
2021/07/09 05:05:24;;;;;;;8.90;8.00;;;17.60;99.90;;;;;;5092912;28;20236;-83
2021/07/09 05:07:50;;;;;;;8.50;7.70;;;17.60;99.90;;;;;;5092861;28;20437;-83
2021/07/09 05:10:16;;;;;;;9.33;8.40;;;17.60;99.90;;;;;;5075345;28;20163;-83
2021/07/09 05:12:42;;;;;;;11.00;8.70;;;17.70;99.90;;;;;;5094565;28;20159;-83
2021/07/09 05:15:09;;;;;;;9.17;8.27;;;17.70;99.90;;;;;;5096902;28;20405;-83
2021/07/09 05:17:35;;;;;;;9.47;8.30;;;17.60;99.90;;;;;;5096005;28;20160;-85
2021/07/09 05:20:01;;;;;;;7.33;6.73;;;17.60;99.90;;;;;;5083044;28;20390;-86
2021/07/09 05:22:27;;;;;;;8.30;7.50;;;17.70;99.90;;;;;;5082244;28;20414;-86
2021/07/09 05:24:54;;;;;;;8.07;7.27;;;17.70;99.90;;;;;;5083874;28;20390;-86
2021/07/09 05:27:22;;;;;;;8.43;7.60;;;17.60;99.90;;;;;;5083894;28;20243;-86
2021/07/09 05:29:48;;;;;;;7.40;6.70;;;17.60;99.90;;;;;;5082065;28;20885;-84
2021/07/09 05:32:22;;;;;;;9.60;7.30;;;17.50;99.90;;;;;;5065642;28;20401;-86
2021/07/09 05:34:48;;;;;;;7.90;7.20;;;17.50;99.90;;;;;;5082816;28;20163;-86
2021/07/09 05:37:15;;;;;;;7.30;6.60;;;17.50;99.90;;;;;;5048490;28;20408;-86
2021/07/09 05:39:41;;;;;;;7.07;6.53;;;17.50;99.90;;;;;;5082746;28;20456;-86
2021/07/09 05:42:07;;;;;;;6.70;6.10;;;17.40;99.90;;;;;;5082556;28;20473;-86
2021/07/09 05:44:33;;;;;;;7.13;6.43;;;17.50;99.90;;;;;;5048506;28;20160;-85
2021/07/09 05:46:59;;;;;;;6.43;5.83;;;17.50;99.90;;;;;;5085829;28;20189;-84
2021/07/09 05:49:24;;;;;;;5.93;5.43;;;17.40;99.90;;;;;;5088483;28;20164;-86
2021/07/09 05:51:51;;;;;;;5.70;5.20;;;17.30;99.90;;;;;;5085467;28;20419;-86
2021/07/09 05:54:18;;;;;;;5.67;5.17;;;17.30;99.90;;;;;;5088798;28;20571;-86
2021/07/09 05:56:44;;;;;;;4.47;4.10;;;17.20;99.90;;;;;;5082450;28;20488;-86
2021/07/09 05:59:09;;;;;;;5.20;4.80;;;17.30;99.90;;;;;;5081017;28;21013;-86
2021/07/09 06:01:35;;;;;;;5.00;4.60;;;17.30;99.90;;;;;;5063409;28;20233;-86
2021/07/09 06:04:01;;;;;;;7.33;5.30;;;17.30;99.90;;;;;;5081151;28;20540;-86
2021/07/09 06:06:27;;;;;;;5.37;4.97;;;17.30;99.90;;;;;;5081098;28;20573;-86
2021/07/09 06:08:53;;;;;;;5.40;4.90;;;17.20;99.90;;;;;;5080888;28;20199;-85
2021/07/09 06:11:18;;;;;;;6.27;4.67;;;17.20;99.90;;;;;;5081277;28;20217;-86
2021/07/09 06:13:44;;;;;;;6.47;5.27;;;17.20;99.90;;;;;;5080864;28;20205;-86
2021/07/09 06:16:10;;;;;;;5.30;4.90;;;17.20;99.90;;;;;;5080257;28;20597;-85
2021/07/09 06:18:36;;;;;;;6.70;6.10;;;17.30;99.90;;;;;;5081030;28;20191;-85
2021/07/09 06:21:01;;;;;;;6.30;4.77;;;17.30;99.90;;;;;;5079870;28;20531;-85
2021/07/09 06:23:28;;;;;;;6.07;5.30;;;17.30;99.90;;;;;;5078270;28;20222;-85
2021/07/09 06:25:55;;;;;;;6.90;6.20;;;17.30;99.90;;;;;;5063065;28;20159;-86
2021/07/09 06:28:21;;;;;;;5.33;4.93;;;17.30;99.90;;;;;;5080986;28;20409;-86
2021/07/09 06:30:47;;;;;;;6.13;5.60;;;17.40;99.90;;;;;;5080261;28;20425;-85
2021/07/09 06:33:13;;;;;;;5.83;5.43;;;17.30;99.90;;;;;;5080191;28;20422;-86
2021/07/09 06:35:39;;;;;;;7.03;6.43;;;17.30;99.90;;;;;;5080015;28;20170;-86
2021/07/09 06:38:06;;;;;;;5.80;5.27;;;17.30;99.90;;;;;;5061570;28;20210;-85
2021/07/09 06:40:33;;;;;;;6.47;5.87;;;17.30;99.90;;;;;;5079997;28;20410;-86
2021/07/09 06:43:00;;;;;;;6.10;5.60;;;17.30;99.90;;;;;;5079814;28;20461;-86
2021/07/09 06:45:26;;;;;;;5.63;4.87;;;17.30;99.90;;;;;;5080328;28;20389;-86
2021/07/09 06:47:52;;;;;;;5.33;4.90;;;17.30;99.90;;;;;;5080274;28;20481;-86
2021/07/09 06:50:18;;;;;;;4.50;3.80;;;17.30;99.90;;;;;;5062633;28;20437;-86
2021/07/09 06:52:44;;;;;;;5.60;4.50;;;17.30;99.90;;;;;;5075897;28;20226;-86
2021/07/09 06:55:12;;;;;;;4.83;3.70;;;17.30;99.90;;;;;;5064881;28;20488;-85
2021/07/09 06:57:39;;;;;;;4.77;4.30;;;17.20;99.90;;;;;;5080908;28;20428;-86
2021/07/09 07:00:06;;;;;;;4.40;4.10;;;17.20;99.90;;;;;;5081264;28;20405;-86
2021/07/09 07:02:33;;;;;;;5.40;4.90;;;17.20;99.90;;;;;;5081081;28;20751;-86
2021/07/09 07:05:00;;;;;;;4.43;3.93;;;17.20;99.90;;;;;;5082070;28;20477;-86
2021/07/09 07:07:27;;;;;;;5.60;5.17;;;17.20;99.90;;;;;;5082715;28;20501;-83
2021/07/09 07:09:53;;;;;;;6.03;3.43;;;17.20;99.90;;;;;;5093486;28;20478;-81
2021/07/09 07:12:19;;;;;;;3.20;3.00;;;17.20;99.90;;;;;;5093991;28;20796;-80
2021/07/09 07:14:44;;;;;;;3.00;2.80;;;17.20;99.90;;;;;;5093611;28;20218;-83
2021/07/09 07:17:11;;;;;;;4.07;3.77;;;17.20;99.90;;;;;;5094085;28;20159;-82
2021/07/09 07:19:37;;;;;;;4.60;2.90;;;17.20;99.90;;;;;;5093716;28;20207;-84
2021/07/09 07:22:03;;;;;;;3.53;3.10;;;17.20;99.90;;;;;;5092939;28;20428;-86
2021/07/09 07:24:29;;;;;;;7.53;3.63;;;17.20;99.90;;;;;;5093218;28;20413;-83
2021/07/09 07:26:57;;;;;;;3.27;3.00;;;17.20;99.90;;;;;;5092828;28;20449;-83
2021/07/09 07:29:24;;;;;;;3.00;2.80;;;17.20;99.90;;;;;;5093989;28;20442;-83
2021/07/09 07:31:51;;;;;;;3.73;3.43;;;17.10;99.90;;;;;;5072358;28;20421;-86
2021/07/09 07:34:17;;;;;;;3.30;3.10;;;17.20;99.90;;;;;;5089575;28;20422;-84
2021/07/09 07:36:44;;;;;;;9.53;4.13;;;17.20;99.90;;;;;;5093373;28;20870;-83
2021/07/09 07:39:10;;;;;;;4.27;3.30;;;17.20;99.90;;;;;;5093596;28;20460;-83
2021/07/09 07:41:37;;;;;;;6.20;4.20;;;17.20;99.90;;;;;;5093370;28;20434;-83
2021/07/09 07:44:04;;;;;;;4.87;4.47;;;17.10;99.90;;;;;;5094335;28;20457;-83
2021/07/09 07:46:30;;;;;;;3.93;3.53;;;17.10;99.90;;;;;;5093852;28;20469;-83
2021/07/09 07:48:57;;;;;;;4.40;4.00;;;17.10;99.90;;;;;;5093441;28;20616;-83
2021/07/09 07:51:24;;;;;;;5.60;5.10;;;17.10;99.90;;;;;;5092986;28;20422;-83
2021/07/09 07:53:50;;;;;;;5.80;4.00;;;17.10;99.90;;;;;;5093308;28;20406;-83
2021/07/09 07:56:17;;;;;;;4.33;3.97;;;17.10;99.90;;;;;;5093651;28;20424;-82
2021/07/09 07:58:43;;;;;;;8.40;5.20;;;17.10;99.90;;;;;;5076430;28;20453;-82
2021/07/09 08:01:10;;;;;;;4.77;4.47;;;17.10;99.90;;;;;;5093893;28;20390;-82
2021/07/09 08:03:36;;;;;;;5.00;4.50;;;17.10;99.90;;;;;;5093019;28;20429;-83
2021/07/09 08:06:03;;;;;;;5.73;4.43;;;17.10;99.90;;;;;;5093272;28;20402;-84
2021/07/09 08:08:30;;;;;;;4.53;4.10;;;17.20;99.90;;;;;;5075525;28;20449;-83
2021/07/09 08:10:56;;;;;;;4.10;3.80;;;17.20;99.90;;;;;;5093178;28;20416;-83
2021/07/09 08:13:22;;;;;;;3.20;3.00;;;17.20;99.90;;;;;;5075158;28;20433;-83
2021/07/09 08:15:47;;;;;;;4.00;3.70;;;17.20;99.90;;;;;;5092597;28;20659;-83
2021/07/09 08:18:13;;;;;;;3.43;3.23;;;17.30;99.90;;;;;;5092437;28;20210;-83
2021/07/09 08:20:41;;;;;;;6.13;2.93;;;17.30;99.90;;;;;;5093019;28;20160;-83
2021/07/09 08:23:07;;;;;;;3.87;3.57;;;17.40;99.90;;;;;;5092568;28;20616;-83
2021/07/09 08:25:33;;;;;;;3.70;3.40;;;17.40;99.90;;;;;;5075035;28;20473;-84
2021/07/09 08:27:59;;;;;;;4.77;2.60;;;17.50;99.90;;;;;;5093523;28;20409;-83
2021/07/09 08:30:24;;;;;;;3.07;2.77;;;17.50;99.90;;;;;;5081894;28;20175;-86
2021/07/09 08:32:50;;;;;;;2.73;2.53;;;17.50;99.90;;;;;;5067365;28;20171;-83
2021/07/09 08:35:16;;;;;;;2.50;2.30;;;17.60;99.90;;;;;;5088125;28;20171;-83
2021/07/09 08:37:42;;;;;;;2.47;2.27;;;17.50;99.90;;;;;;5075632;28;20444;-83
2021/07/09 08:40:09;;;;;;;2.53;2.43;;;17.50;99.90;;;;;;5093000;28;20537;-83
2021/07/09 08:42:37;;;;;;;3.03;2.67;;;17.60;99.90;;;;;;5091727;28;20469;-85
2021/07/09 08:45:05;;;;;;;2.60;2.50;;;17.60;99.90;;;;;;5077389;28;20458;-86
2021/07/09 08:47:32;;;;;;;2.97;2.77;;;17.70;99.90;;;;;;5079003;28;20417;-86
2021/07/09 08:50:02;;;;;;;2.83;2.50;;;17.70;99.90;;;;;;5081769;28;20429;-86
2021/07/09 08:52:27;;;;;;;2.47;2.27;;;17.80;99.90;;;;;;5080069;28;20607;-85
2021/07/09 08:54:53;;;;;;;1.90;1.80;;;17.70;99.90;;;;;;5080387;28;20506;-86
2021/07/09 08:57:19;;;;;;;2.60;2.40;;;17.80;99.90;;;;;;5082436;28;20175;-85
2021/07/09 08:59:45;;;;;;;2.10;1.90;;;17.80;99.90;;;;;;5081722;28;20237;-85
2021/07/09 09:02:11;;;;;;;3.10;2.47;;;17.80;99.90;;;;;;5081969;28;20243;-85
2021/07/09 09:04:38;;;;;;;2.10;1.90;;;17.90;99.90;;;;;;5080404;28;20503;-85
2021/07/09 09:07:07;;;;;;;2.70;2.50;;;17.90;99.90;;;;;;5081567;28;20171;-84
2021/07/09 09:09:38;;;;;;;3.00;2.73;;;17.90;99.90;;;;;;5082500;28;20440;-84
2021/07/09 09:12:10;;;;;;;2.57;2.47;;;18.00;99.90;;;;;;5081381;28;20418;-83
2021/07/09 09:14:40;;;;;;;2.90;2.70;;;18.00;99.90;;;;;;5064394;28;20422;-84
2021/07/09 09:17:34;;;;;;;5.70;2.40;;;17.90;99.90;;;;;;5080790;28;20502;-84
2021/07/09 09:20:11;;;;;;;2.57;2.40;;;17.90;99.90;;;;;;5075670;28;20425;-86
2021/07/09 09:22:55;;;;;;;2.97;2.77;;;18.00;99.90;;;;;;5082189;28;20497;-85
2021/07/09 09:25:23;;;;;;;3.20;2.37;;;18.00;99.90;;;;;;5081511;28;20838;-86
2021/07/09 09:28:03;;;;;;;3.47;3.17;;;18.00;99.90;;;;;;5048640;28;20410;-83
2021/07/09 09:30:29;;;;;;;3.13;2.43;;;17.90;99.90;;;;;;5075829;28;20411;-85
2021/07/09 09:32:57;;;;;;;2.73;2.47;;;18.10;99.90;;;;;;5085007;28;20506;-85
2021/07/09 09:35:28;;;;;;;4.27;2.87;;;18.10;99.90;;;;;;5063607;28;20768;-85
2021/07/09 09:37:56;;;;;;;2.60;2.40;;;18.20;99.90;;;;;;5081561;28;20464;-85
2021/07/09 09:40:25;;;;;;;3.87;3.57;;;18.10;99.90;;;;;;5080656;28;20402;-85
2021/07/09 09:42:52;;;;;;;2.97;2.70;;;18.20;99.90;;;;;;5061406;28;20466;-85
2021/07/09 09:45:24;;;;;;;3.53;3.23;;;18.40;99.90;;;;;;5078604;28;20512;-85
2021/07/09 09:47:50;;;;;;;3.87;3.40;;;18.40;99.90;;;;;;5075364;28;20410;-86
2021/07/09 09:50:19;;;;;;;2.90;2.70;;;18.40;99.90;;;;;;5079339;28;20898;-86
2021/07/09 09:52:47;;;;;;;9.93;3.47;;;18.50;99.90;;;;;;5078891;28;20501;-85
2021/07/09 09:55:15;;;;;;;3.30;3.03;;;18.40;99.90;;;;;;5080910;28;20730;-86
2021/07/09 09:57:42;;;;;;;3.53;3.23;;;18.50;99.90;;;;;;5063499;28;20545;-86
2021/07/09 10:00:29;;;;;;;3.43;3.13;;;18.50;99.90;;;;;;5075649;28;20906;-85
2021/07/09 10:02:55;;;;;;;2.70;2.50;;;18.50;99.90;;;;;;5065948;28;20462;-85
2021/07/09 10:05:21;;;;;;;3.07;2.87;;;18.50;99.90;;;;;;5059229;28;20429;-85
2021/07/09 10:07:47;;;;;;;2.97;2.77;;;18.60;99.90;;;;;;5092362;28;20258;-86
2021/07/09 10:10:15;;;;;;;3.13;2.90;;;18.80;99.90;;;;;;5090748;28;20443;-86
2021/07/09 10:12:46;;;;;;;3.90;3.60;;;19.00;99.90;;;;;;5091426;28;20419;-85
2021/07/09 10:15:12;;;;;;;3.90;3.37;;;19.10;99.90;;;;;;5063555;28;20405;-86
2021/07/09 10:17:40;;;;;;;3.53;3.23;;;19.20;99.90;;;;;;5065463;28;20437;-85
2021/07/09 10:20:07;;;;;;;3.33;3.13;;;19.40;99.90;;;;;;5079303;28;20478;-85
2021/07/09 10:22:33;;;;;;;3.10;2.90;;;19.60;99.90;;;;;;5065815;28;20411;-86
2021/07/09 10:25:00;;;;;;;3.43;3.20;;;19.70;99.90;;;;;;5072900;28;20438;-86
2021/07/09 10:27:27;;;;;;;4.23;3.40;;;19.60;99.90;;;;;;5067913;28;20213;-86
2021/07/09 10:29:54;;;;;;;3.30;3.10;;;19.50;99.90;;;;;;5081015;28;20517;-86
2021/07/09 10:32:32;;;;;;;3.60;3.30;;;19.50;99.90;;;;;;5066947;28;20422;-86
2021/07/09 10:34:58;;;;;;;3.37;3.10;;;19.50;99.90;;;;;;5064808;28;20435;-85
2021/07/09 10:37:29;;;;;;;2.90;2.70;;;19.60;99.90;;;;;;5072419;28;20420;-86
2021/07/09 10:40:19;;;;;;;3.33;3.03;;;19.70;99.90;;;;;;5082207;28;20448;-85
2021/07/09 10:42:47;;;;;;;3.43;3.13;;;19.80;99.90;;;;;;5060105;28;20504;-86
2021/07/09 10:45:25;;;;;;;3.60;2.73;;;19.80;99.90;;;;;;5069645;28;20846;-86
2021/07/09 10:47:54;;;;;;;2.60;2.40;;;19.70;99.90;;;;;;5078407;28;20496;-86
2021/07/09 10:50:38;;;;;;;3.30;3.00;;;19.60;99.90;;;;;;5082456;28;20402;-86
2021/07/09 10:53:19;;;;;;;2.40;2.30;;;19.50;99.90;;;;;;5087452;28;20417;-85
2021/07/09 10:56:00;;;;;;;3.70;3.40;;;19.40;99.90;;;;;;5064252;28;21017;-85
2021/07/09 10:58:40;;;;;;;2.80;2.60;;;19.50;99.90;;;;;;5080695;28;20476;-86
2021/07/09 11:01:13;;;;;;;4.50;2.87;;;19.30;99.90;;;;;;5093651;28;20497;-85
2021/07/09 11:04:04;;;;;;;3.60;2.10;;;19.20;99.90;;;;;;5061577;28;20563;-87
2021/07/09 11:06:43;;;;;;;6.43;3.10;;;19.20;99.90;;;;;;5057401;28;20882;-86
2021/07/09 11:09:11;;;;;;;3.20;2.87;;;19.10;99.90;;;;;;5040612;28;20576;-85
2021/07/09 11:11:43;;;;;;;2.80;2.50;;;19.30;99.90;;;;;;5054878;28;20418;-86
2021/07/09 11:14:11;;;;;;;2.93;2.73;;;19.60;99.90;;;;;;5038128;28;20427;-86
2021/07/09 11:16:42;;;;;;;2.57;2.37;;;19.90;99.90;;;;;;5036423;28;20419;-84
2021/07/09 11:19:10;;;;;;;2.27;2.07;;;20.30;99.90;;;;;;5021997;28;20451;-84
2021/07/09 11:21:51;;;;;;;2.50;2.30;;;20.70;99.90;;;;;;5043382;28;20446;-85
2021/07/09 11:24:21;;;;;;;2.30;2.20;;;21.00;99.90;;;;;;5021572;28;20411;-85
2021/07/09 11:26:49;;;;;;;3.27;2.60;;;21.00;99.90;;;;;;5043814;28;20810;-85
2021/07/09 11:29:35;;;;;;;2.50;2.00;;;20.80;99.90;;;;;;5042705;28;20423;-84
2021/07/09 11:32:11;;;;;;;4.30;4.00;;;20.80;99.90;;;;;;5036684;28;20771;-84
2021/07/09 11:34:41;;;;;;;2.70;2.50;;;20.70;99.90;;;;;;5039782;28;20479;-84
2021/07/09 11:37:13;;;;;;;2.53;2.13;;;20.70;99.90;;;;;;5001069;28;20392;-85
2021/07/09 11:39:50;;;;;;;2.13;1.93;;;20.60;99.90;;;;;;5057913;28;20927;-86
2021/07/09 11:42:18;;;;;;;3.93;1.90;;;20.50;99.90;;;;;;5016307;28;20544;-85
2021/07/09 11:44:56;;;;;;;3.40;2.27;;;20.30;99.90;;;;;;5037091;28;20478;-85
2021/07/09 11:47:24;;;;;;;9.43;2.03;;;20.30;99.90;;;;;;5020328;28;20423;-86
2021/07/09 11:49:53;;;;;;;2.27;2.17;;;20.30;99.90;;;;;;5036444;28;20577;-86
2021/07/09 11:52:23;;;;;;;1.87;1.77;;;20.20;99.90;;;;;;5036229;28;20423;-86
2021/07/09 11:54:50;;;;;;;1.57;1.47;;;19.70;99.90;;;;;;5010382;28;20432;-86
2021/07/09 11:57:22;;;;;;;2.50;2.30;;;19.80;99.90;;;;;;5010782;28;20454;-85
2021/07/09 11:59:50;;;;;;;1.93;1.83;;;19.80;99.90;;;;;;4994455;28;20959;-86
2021/07/09 12:02:18;;;;;;;1.80;1.70;;;19.80;99.90;;;;;;4985289;28;20592;-86
2021/07/09 12:04:47;;;;;;;1.50;1.40;;;19.70;99.90;;;;;;5028333;28;20573;-86
2021/07/09 12:07:16;;;;;;;2.03;1.87;;;19.60;99.90;;;;;;5034164;28;20463;-86
2021/07/09 12:09:45;;;;;;;2.20;2.10;;;19.60;99.90;;;;;;5035768;28;20492;-84
2021/07/09 12:12:11;;;;;;;2.23;2.10;;;19.60;99.90;;;;;;5037520;28;20452;-86
2021/07/09 12:14:55;;;;;;;2.13;2.03;;;19.60;99.90;;;;;;5077838;28;20482;-86
2021/07/09 12:17:23;;;;;;;1.90;1.80;;;19.50;99.90;;;;;;5087402;28;20878;-86
2021/07/09 12:20:10;;;;;;;2.20;1.93;;;19.50;99.90;;;;;;5077896;28;20540;-86
2021/07/09 12:22:39;;;;;;;2.00;1.90;;;19.50;99.90;;;;;;5095361;28;20962;-86
2021/07/09 12:25:10;;;;;;;2.30;2.00;;;19.50;99.90;;;;;;5064217;28;20400;-84
2021/07/09 12:27:37;;;;;;;2.10;1.90;;;19.60;99.90;;;;;;5080948;28;20576;-85
2021/07/09 12:30:08;;;;;;;1.80;1.70;;;19.50;99.90;;;;;;5086485;28;20424;-85
2021/07/09 12:32:43;;;;;;;1.90;1.80;;;19.40;99.90;;;;;;5094461;28;20875;-85
2021/07/09 12:35:10;;;;;;;2.40;2.20;;;19.20;99.90;;;;;;5099073;28;20412;-85
2021/07/09 12:37:36;;;;;;;3.00;2.27;;;19.00;99.90;;;;;;5098792;28;20408;-86
2021/07/09 12:40:18;;;;;;;1.73;1.63;;;19.10;99.90;;;;;;5063781;28;21018;-84
2021/07/09 12:42:45;;;;;;;1.77;1.67;;;19.30;99.90;;;;;;5095310;28;20509;-85
2021/07/09 12:45:12;;;;;;;2.13;1.93;;;19.30;99.90;;;;;;5062566;28;20770;-85
2021/07/09 12:47:53;;;;;;;1.90;1.80;;;19.50;99.90;;;;;;5072726;28;20522;-85
2021/07/09 12:50:23;;;;;;;2.00;1.90;;;19.50;99.90;;;;;;5088342;28;20416;-86